createdAt,value
2018-12-17T00:00:33.210Z,16.62
2018-12-17T00:01:35.829Z,19.48
2018-12-17T00:02:38.268Z,21.07
2018-12-17T00:03:40.748Z,21.95
2018-12-17T00:04:43.210Z,17.65
2018-12-17T00:05:45.760Z,15.65
2018-12-17T00:06:48.232Z,19.87
2018-12-17T00:07:50.689Z,17.48
2018-12-17T00:08:53.134Z,18.50
2018-12-17T00:09:55.611Z,15.58
2018-12-17T00:10:58.750Z,24.90
2018-12-17T00:12:01.188Z,13.30
2018-12-17T00:13:03.633Z,15.72
2018-12-17T00:14:06.082Z,15.15
2018-12-17T00:15:08.734Z,15.30
2018-12-17T00:16:11.183Z,17.95
2018-12-17T00:17:13.660Z,14.50
2018-12-17T00:18:16.103Z,18.52
2018-12-17T00:19:18.559Z,16.50
2018-12-17T00:20:21.011Z,16.95
2018-12-17T00:21:23.456Z,16.30
2018-12-17T00:22:25.890Z,20.72
2018-12-17T00:23:28.337Z,19.42
2018-12-17T00:24:30.768Z,16.05
2018-12-17T00:25:33.224Z,16.40
2018-12-17T00:26:35.688Z,18.00
2018-12-17T00:27:38.168Z,14.80
2018-12-17T00:28:40.601Z,16.57
2018-12-17T00:29:43.048Z,18.40
2018-12-17T00:30:45.526Z,20.90
2018-12-17T00:31:47.963Z,17.62
2018-12-17T00:32:50.400Z,19.50
2018-12-17T00:33:52.853Z,25.15
2018-12-17T00:34:55.284Z,18.95
2018-12-17T00:35:57.745Z,21.60
2018-12-17T00:37:00.187Z,19.00
2018-12-17T00:38:02.642Z,20.02
2018-12-17T00:39:06.678Z,23.22
2018-12-17T00:40:09.378Z,15.72
2018-12-17T00:41:11.847Z,17.40
2018-12-17T00:42:14.322Z,19.55
2018-12-17T00:43:16.758Z,19.15
2018-12-17T00:44:19.187Z,14.35
2018-12-17T00:45:21.650Z,18.30
2018-12-17T00:46:24.096Z,17.67
2018-12-17T00:47:26.534Z,18.25
2018-12-17T00:48:29.160Z,20.45
2018-12-17T00:49:31.697Z,16.05
2018-12-17T00:50:34.131Z,23.40
2018-12-17T00:51:36.584Z,20.97
2018-12-17T00:52:39.031Z,15.93
2018-12-17T00:53:41.468Z,17.77
2018-12-17T00:54:43.902Z,17.45
2018-12-17T00:55:46.368Z,16.73
2018-12-17T00:56:48.824Z,23.07
2018-12-17T00:57:51.271Z,19.42
2018-12-17T00:58:53.731Z,19.32
2018-12-17T00:59:56.180Z,22.27
2018-12-17T01:00:58.636Z,23.57
2018-12-17T01:02:01.066Z,24.25
2018-12-17T01:03:03.892Z,26.27
2018-12-17T01:04:06.330Z,24.63
2018-12-17T01:05:09.551Z,27.05
2018-12-17T01:06:12.032Z,26.97
2018-12-17T01:07:14.588Z,30.95
2018-12-17T01:08:17.040Z,21.62
2018-12-17T01:09:19.506Z,28.20
2018-12-17T01:10:21.952Z,22.52
2018-12-17T01:11:24.450Z,18.10
2018-12-17T01:12:26.900Z,18.90
2018-12-17T01:13:29.351Z,22.73
2018-12-17T01:14:31.796Z,19.02
2018-12-17T01:15:34.255Z,18.05
2018-12-17T01:16:36.711Z,20.23
2018-12-17T01:17:39.196Z,19.60
2018-12-17T01:18:41.630Z,13.78
2018-12-17T01:19:44.080Z,24.35
2018-12-17T01:20:46.523Z,20.35
2018-12-17T01:21:48.966Z,18.07
2018-12-17T01:22:52.168Z,16.50
2018-12-17T01:23:54.701Z,21.05
2018-12-17T01:24:57.134Z,18.23
2018-12-17T01:25:59.867Z,24.18
2018-12-17T01:27:02.319Z,15.78
2018-12-17T01:28:04.886Z,17.77
2018-12-17T01:29:07.326Z,24.92
2018-12-17T01:30:09.780Z,18.05
2018-12-17T01:31:12.243Z,21.40
2018-12-17T01:32:14.781Z,19.87
2018-12-17T01:33:17.271Z,16.75
2018-12-17T01:34:19.702Z,18.55
2018-12-17T01:35:22.149Z,16.25
2018-12-17T01:36:24.580Z,18.20
2018-12-17T01:37:27.029Z,15.43
2018-12-17T01:38:29.492Z,16.55
2018-12-17T01:39:31.953Z,21.20
2018-12-17T01:40:35.074Z,19.55
2018-12-17T01:41:37.520Z,18.23
2018-12-17T01:42:39.972Z,14.98
2018-12-17T01:43:42.433Z,21.02
2018-12-17T01:44:44.974Z,24.18
2018-12-17T01:45:47.413Z,24.75
2018-12-17T01:46:49.858Z,18.27
2018-12-17T01:47:52.320Z,20.97
2018-12-17T01:48:54.786Z,31.25
2018-12-17T01:49:57.217Z,15.90
2018-12-17T01:50:59.651Z,17.55
2018-12-17T01:52:02.093Z,23.77
2018-12-17T01:53:04.574Z,18.90
2018-12-17T01:54:07.027Z,21.60
2018-12-17T01:55:09.465Z,20.62
2018-12-17T01:56:11.910Z,18.42
2018-12-17T01:57:14.342Z,19.23
2018-12-17T01:58:16.795Z,14.90
2018-12-17T01:59:19.244Z,20.27
2018-12-17T02:00:21.759Z,16.07
2018-12-17T02:01:24.223Z,31.57
2018-12-17T02:02:26.684Z,13.80
2018-12-17T02:03:29.134Z,16.25
2018-12-17T02:04:31.584Z,16.02
2018-12-17T02:05:34.031Z,15.00
2018-12-17T02:06:36.466Z,14.28
2018-12-17T02:07:39.070Z,13.80
2018-12-17T02:08:41.712Z,13.43
2018-12-17T02:09:44.203Z,18.52
2018-12-17T02:10:46.646Z,14.87
2018-12-17T02:11:49.110Z,17.60
2018-12-17T02:12:51.539Z,16.50
2018-12-17T02:13:53.999Z,19.20
2018-12-17T02:14:56.461Z,17.40
2018-12-17T02:15:58.904Z,15.15
2018-12-17T02:17:01.335Z,12.73
2018-12-17T02:18:03.775Z,15.63
2018-12-17T02:19:06.219Z,14.78
2018-12-17T02:20:08.675Z,12.23
2018-12-17T02:21:11.201Z,13.08
2018-12-17T02:22:13.728Z,13.53
2018-12-17T02:23:16.181Z,11.03
2018-12-17T02:24:18.635Z,9.63
2018-12-17T02:25:21.103Z,10.53
2018-12-17T02:26:23.542Z,12.53
2018-12-17T02:27:25.986Z,13.45
2018-12-17T02:28:28.446Z,12.45
2018-12-17T02:29:30.979Z,16.55
2018-12-17T02:30:33.437Z,13.18
2018-12-17T02:31:35.871Z,15.18
2018-12-17T02:32:38.305Z,10.00
2018-12-17T02:33:40.752Z,14.68
2018-12-17T02:34:43.208Z,12.55
2018-12-17T02:35:45.665Z,13.95
2018-12-17T02:36:48.099Z,12.30
2018-12-17T02:37:50.551Z,13.38
2018-12-17T02:38:52.983Z,15.35
2018-12-17T02:39:55.444Z,11.38
2018-12-17T02:40:57.892Z,12.90
2018-12-17T02:42:00.323Z,14.00
2018-12-17T02:43:02.759Z,16.42
2018-12-17T02:44:05.497Z,12.65
2018-12-17T02:45:08.076Z,16.70
2018-12-17T02:46:10.523Z,18.82
2018-12-17T02:47:12.946Z,17.52
2018-12-17T02:48:15.394Z,22.20
2018-12-17T02:49:17.918Z,26.68
2018-12-17T02:50:20.372Z,17.12
2018-12-17T02:51:22.804Z,16.40
2018-12-17T02:52:25.294Z,15.75
2018-12-17T02:53:27.732Z,19.50
2018-12-17T02:54:30.164Z,18.12
2018-12-17T02:55:32.630Z,18.75
2018-12-17T02:56:35.099Z,15.25
2018-12-17T02:57:37.557Z,18.30
2018-12-17T02:58:43.997Z,18.52
2018-12-17T02:59:44.471Z,21.23
2018-12-17T03:00:46.938Z,11.95
2018-12-17T03:01:49.485Z,20.45
2018-12-17T03:02:51.928Z,17.52
2018-12-17T03:03:54.367Z,17.23
2018-12-17T03:04:56.806Z,20.00
2018-12-17T03:05:59.260Z,14.45
2018-12-17T03:07:01.700Z,14.63
2018-12-17T03:08:04.137Z,15.48
2018-12-17T03:09:06.706Z,20.20
2018-12-17T03:10:09.343Z,19.10
2018-12-17T03:11:11.797Z,14.65
2018-12-17T03:12:14.243Z,15.75
2018-12-17T03:13:16.686Z,16.55
2018-12-17T03:14:19.134Z,15.43
2018-12-17T03:15:21.661Z,15.90
2018-12-17T03:16:24.123Z,16.07
2018-12-17T03:17:26.571Z,16.27
2018-12-17T03:18:29.010Z,14.55
2018-12-17T03:19:31.455Z,17.95
2018-12-17T03:20:33.892Z,16.85
2018-12-17T03:21:36.413Z,20.17
2018-12-17T03:22:38.908Z,18.32
2018-12-17T03:23:41.391Z,18.23
2018-12-17T03:24:43.826Z,21.57
2018-12-17T03:25:46.264Z,19.00
2018-12-17T03:26:48.721Z,23.05
2018-12-17T03:27:51.168Z,19.07
2018-12-17T03:28:53.638Z,20.48
2018-12-17T03:29:56.076Z,17.82
2018-12-17T03:30:58.556Z,23.65
2018-12-17T03:32:01.033Z,21.42
2018-12-17T03:33:03.618Z,22.73
2018-12-17T03:34:06.068Z,26.15
2018-12-17T03:35:08.530Z,25.00
2018-12-17T03:36:11.060Z,26.62
2018-12-17T03:37:13.510Z,27.25
2018-12-17T03:38:15.987Z,18.85
2018-12-17T03:39:18.427Z,23.98
2018-12-17T03:40:20.869Z,21.27
2018-12-17T03:41:23.302Z,21.37
2018-12-17T03:42:25.756Z,22.60
2018-12-17T03:43:28.215Z,19.23
2018-12-17T03:44:30.673Z,22.10
2018-12-17T03:45:33.140Z,17.12
2018-12-17T03:46:35.580Z,18.00
2018-12-17T03:47:38.068Z,24.40
2018-12-17T03:48:40.520Z,24.75
2018-12-17T03:49:42.964Z,19.48
2018-12-17T03:50:45.400Z,24.43
2018-12-17T03:51:47.845Z,20.12
2018-12-17T03:52:50.291Z,17.55
2018-12-17T03:53:52.736Z,14.50
2018-12-17T03:54:55.189Z,14.73
2018-12-17T03:55:57.616Z,15.55
2018-12-17T03:57:00.060Z,14.43
2018-12-17T03:58:02.520Z,14.65
2018-12-17T03:59:04.979Z,11.53
2018-12-17T04:00:07.988Z,16.27
2018-12-17T04:01:10.433Z,17.48
2018-12-17T04:02:12.884Z,14.53
2018-12-17T04:03:15.335Z,13.38
2018-12-17T04:04:17.790Z,18.25
2018-12-17T04:05:20.259Z,20.12
2018-12-17T04:06:22.706Z,13.75
2018-12-17T04:07:25.254Z,20.55
2018-12-17T04:08:27.766Z,16.17
2018-12-17T04:09:30.220Z,20.60
2018-12-17T04:10:32.831Z,14.03
2018-12-17T04:11:35.273Z,18.50
2018-12-17T04:12:38.092Z,13.08
2018-12-17T04:13:40.548Z,17.48
2018-12-17T04:14:42.991Z,15.40
2018-12-17T04:15:45.428Z,16.95
2018-12-17T04:16:47.877Z,16.67
2018-12-17T04:17:50.324Z,18.92
2018-12-17T04:18:52.781Z,23.83
2018-12-17T04:19:55.223Z,22.93
2018-12-17T04:20:57.659Z,15.43
2018-12-17T04:22:00.096Z,18.07
2018-12-17T04:23:02.537Z,22.07
2018-12-17T04:24:04.986Z,17.42
2018-12-17T04:25:07.420Z,14.87
2018-12-17T04:26:09.886Z,16.82
2018-12-17T04:27:12.320Z,17.92
2018-12-17T04:28:14.756Z,15.45
2018-12-17T04:29:17.220Z,16.52
2018-12-17T04:30:19.675Z,15.50
2018-12-17T04:31:22.111Z,17.05
2018-12-17T04:32:24.550Z,19.77
2018-12-17T04:33:27.006Z,17.30
2018-12-17T04:34:29.503Z,23.07
2018-12-17T04:35:31.999Z,19.65
2018-12-17T04:36:34.464Z,22.15
2018-12-17T04:37:36.895Z,25.05
2018-12-17T04:38:39.335Z,24.75
2018-12-17T04:39:41.799Z,20.57
2018-12-17T04:40:44.255Z,25.62
2018-12-17T04:41:46.709Z,25.32
2018-12-17T04:42:49.147Z,25.10
2018-12-17T04:43:51.578Z,25.90
2018-12-17T04:44:54.166Z,23.42
2018-12-17T04:45:56.630Z,31.55
2018-12-17T04:46:59.072Z,24.35
2018-12-17T04:48:01.516Z,28.12
2018-12-17T04:49:03.969Z,27.35
2018-12-17T04:50:06.756Z,26.95
2018-12-17T04:51:09.364Z,26.23
2018-12-17T04:52:11.809Z,27.32
2018-12-17T04:53:14.245Z,36.17
2018-12-17T04:54:16.683Z,28.17
2018-12-17T04:55:19.147Z,30.68
2018-12-17T04:56:21.597Z,25.48
2018-12-17T04:57:24.034Z,25.77
2018-12-17T04:58:26.510Z,37.93
2018-12-17T04:59:28.958Z,28.62
2018-12-17T05:00:31.408Z,26.30
2018-12-17T05:01:33.859Z,33.08
2018-12-17T05:02:36.305Z,43.17
2018-12-17T05:03:38.747Z,30.32
2018-12-17T05:04:41.186Z,33.30
2018-12-17T05:05:43.643Z,55.67
2018-12-17T05:06:46.083Z,36.33
2018-12-17T05:07:48.527Z,36.50
2018-12-17T05:08:51.043Z,37.55
2018-12-17T05:09:53.489Z,53.38
2018-12-17T05:10:55.968Z,36.13
2018-12-17T05:11:58.420Z,41.45
2018-12-17T05:13:00.961Z,58.85
2018-12-17T05:14:03.402Z,47.20
2018-12-17T05:15:06.238Z,34.67
2018-12-17T05:16:08.684Z,31.25
2018-12-17T05:17:11.144Z,30.27
2018-12-17T05:18:13.592Z,35.38
2018-12-17T05:19:16.029Z,20.15
2018-12-17T05:20:18.479Z,20.75
2018-12-17T05:21:20.980Z,18.12
2018-12-17T05:22:23.439Z,23.62
2018-12-17T05:23:25.871Z,17.67
2018-12-17T05:24:28.307Z,15.40
2018-12-17T05:25:30.796Z,26.07
2018-12-17T05:26:33.248Z,20.37
2018-12-17T05:27:35.712Z,19.67
2018-12-17T05:28:38.164Z,19.17
2018-12-17T05:29:40.595Z,19.73
2018-12-17T05:30:43.123Z,16.75
2018-12-17T05:31:45.587Z,23.90
2018-12-17T05:32:48.124Z,21.00
2018-12-17T05:33:50.793Z,22.05
2018-12-17T05:34:53.253Z,21.65
2018-12-17T05:35:56.583Z,20.92
2018-12-17T05:36:59.112Z,24.30
2018-12-17T05:38:01.576Z,25.17
2018-12-17T05:39:05.504Z,25.02
2018-12-17T05:40:08.052Z,20.25
2018-12-17T05:41:10.498Z,30.65
2018-12-17T05:42:12.961Z,31.33
2018-12-17T05:43:15.425Z,29.25
2018-12-17T05:44:17.880Z,35.65
2018-12-17T05:45:20.353Z,31.73
2018-12-17T05:46:22.815Z,38.83
2018-12-17T05:47:25.303Z,34.05
2018-12-17T05:48:27.769Z,42.05
2018-12-17T05:49:30.211Z,42.43
2018-12-17T05:50:32.655Z,36.10
2018-12-17T05:51:35.091Z,40.92
2018-12-17T05:52:37.540Z,47.33
2018-12-17T05:53:39.982Z,40.12
2018-12-17T05:54:42.515Z,28.38
2018-12-17T05:55:44.955Z,45.45
2018-12-17T05:56:47.395Z,33.05
2018-12-17T05:57:49.860Z,53.98
2018-12-17T05:58:52.304Z,36.05
2018-12-17T05:59:54.739Z,44.42
2018-12-17T06:00:57.175Z,33.95
2018-12-17T06:01:59.612Z,48.42
2018-12-17T06:03:02.083Z,61.75
2018-12-17T06:04:04.539Z,44.30
2018-12-17T06:05:06.987Z,44.63
2018-12-17T06:06:09.429Z,28.25
2018-12-17T06:07:11.876Z,42.60
2018-12-17T06:08:14.330Z,34.48
2018-12-17T06:09:16.867Z,30.25
2018-12-17T06:10:19.393Z,29.67
2018-12-17T06:11:21.846Z,67.72
2018-12-17T06:12:24.289Z,71.05
2018-12-17T06:13:26.750Z,32.23
2018-12-17T06:14:29.234Z,34.58
2018-12-17T06:15:31.684Z,33.42
2018-12-17T06:16:34.149Z,33.45
2018-12-17T06:17:36.602Z,33.40
2018-12-17T06:18:39.838Z,51.55
2018-12-17T06:19:42.295Z,41.70
2018-12-17T06:20:45.533Z,49.73
2018-12-17T06:21:47.986Z,36.20
2018-12-17T06:22:50.466Z,50.83
2018-12-17T06:23:52.929Z,33.53
2018-12-17T06:24:55.421Z,36.53
2018-12-17T06:26:01.547Z,47.62
2018-12-17T06:27:03.980Z,40.80
2018-12-17T06:28:06.423Z,35.50
2018-12-17T06:29:08.937Z,28.75
2018-12-17T06:30:11.548Z,25.43
2018-12-17T06:31:14.072Z,26.80
2018-12-17T06:32:16.650Z,33.25
2018-12-17T06:33:19.113Z,24.18
2018-12-17T06:34:21.707Z,27.45
2018-12-17T06:35:24.289Z,23.38
2018-12-17T06:36:26.736Z,25.20
2018-12-17T06:37:29.178Z,28.35
2018-12-17T06:38:31.655Z,25.43
2018-12-17T06:39:34.617Z,26.30
2018-12-17T06:40:37.062Z,25.27
2018-12-17T06:41:39.552Z,20.40
2018-12-17T06:42:41.999Z,21.05
2018-12-17T06:43:44.523Z,17.55
2018-12-17T06:44:46.999Z,23.75
2018-12-17T06:45:49.605Z,19.20
2018-12-17T06:46:52.134Z,21.40
2018-12-17T06:47:54.633Z,20.85
2018-12-17T06:48:57.166Z,30.65
2018-12-17T06:49:59.672Z,30.17
2018-12-17T06:51:02.204Z,40.55
2018-12-17T06:52:04.726Z,32.03
2018-12-17T06:53:07.161Z,25.50
2018-12-17T06:54:09.624Z,35.60
2018-12-17T06:55:12.140Z,32.48
2018-12-17T06:56:14.647Z,28.30
2018-12-17T06:57:17.155Z,28.47
2018-12-17T06:58:20.267Z,24.75
2018-12-17T06:59:22.713Z,34.70
2018-12-17T07:00:25.209Z,24.50
2018-12-17T07:01:28.202Z,33.40
2018-12-17T07:02:30.867Z,30.65
2018-12-17T07:03:33.316Z,26.33
2018-12-17T07:04:35.746Z,29.25
2018-12-17T07:05:38.228Z,23.32
2018-12-17T07:06:40.671Z,25.10
2018-12-17T07:07:43.116Z,24.43
2018-12-17T07:08:45.559Z,28.38
2018-12-17T07:09:48.023Z,31.25
2018-12-17T07:10:50.511Z,32.65
2018-12-17T07:11:52.975Z,23.52
2018-12-17T07:12:55.410Z,27.98
2018-12-17T07:13:57.911Z,27.15
2018-12-17T07:15:00.381Z,21.27
2018-12-17T07:16:02.834Z,20.97
2018-12-17T07:17:05.291Z,23.98
2018-12-17T07:18:07.740Z,27.93
2018-12-17T07:19:10.193Z,19.02
2018-12-17T07:20:12.631Z,36.23
2018-12-17T07:21:15.180Z,29.37
2018-12-17T07:22:17.617Z,23.65
2018-12-17T07:23:20.061Z,26.37
2018-12-17T07:24:22.518Z,27.37
2018-12-17T07:25:24.963Z,20.05
2018-12-17T07:26:28.811Z,19.92
2018-12-17T07:27:31.645Z,22.30
2018-12-17T07:28:34.175Z,19.70
2018-12-17T07:29:36.837Z,17.70
2018-12-17T07:30:39.318Z,23.52
2018-12-17T07:31:41.779Z,21.75
2018-12-17T07:32:44.274Z,21.55
2018-12-17T07:33:46.880Z,31.05
2018-12-17T07:34:49.486Z,18.87
2018-12-17T07:35:51.983Z,18.73
2018-12-17T07:36:54.436Z,18.25
2018-12-17T07:37:56.891Z,21.17
2018-12-17T07:38:59.350Z,16.77
2018-12-17T07:40:01.930Z,19.27
2018-12-17T07:41:04.558Z,18.52
2018-12-17T07:42:07.046Z,18.80
2018-12-17T07:43:09.599Z,19.15
2018-12-17T07:44:12.048Z,20.70
2018-12-17T07:45:14.491Z,21.00
2018-12-17T07:46:16.959Z,25.17
2018-12-17T07:47:19.436Z,14.53
2018-12-17T07:48:21.934Z,20.45
2018-12-17T07:49:24.388Z,19.85
2018-12-17T07:50:26.926Z,25.35
2018-12-17T07:51:29.387Z,18.07
2018-12-17T07:52:31.862Z,27.17
2018-12-17T07:53:34.331Z,22.07
2018-12-17T07:54:36.778Z,20.35
2018-12-17T07:55:39.262Z,20.32
2018-12-17T07:56:41.740Z,27.45
2018-12-17T07:57:44.202Z,26.30
2018-12-17T07:58:46.679Z,20.17
2018-12-17T07:59:49.347Z,22.62
2018-12-17T08:00:51.888Z,23.80
2018-12-17T08:01:54.364Z,29.05
2018-12-17T08:02:56.959Z,30.88
2018-12-17T08:03:59.466Z,24.80
2018-12-17T08:05:01.932Z,29.25
2018-12-17T08:06:04.368Z,22.65
2018-12-17T08:07:06.817Z,22.55
2018-12-17T08:08:09.267Z,21.93
2018-12-17T08:09:11.725Z,27.10
2018-12-17T08:10:14.175Z,22.20
2018-12-17T08:11:16.640Z,34.23
2018-12-17T08:12:19.150Z,26.37
2018-12-17T08:13:22.291Z,29.52
2018-12-17T08:14:24.756Z,23.12
2018-12-17T08:15:27.207Z,21.23
2018-12-17T08:16:29.663Z,23.98
2018-12-17T08:17:32.109Z,23.80
2018-12-17T08:18:34.647Z,24.12
2018-12-17T08:19:37.153Z,24.63
2018-12-17T08:20:39.602Z,21.62
2018-12-17T08:21:42.098Z,23.40
2018-12-17T08:22:44.780Z,20.15
2018-12-17T08:23:47.237Z,23.35
2018-12-17T08:24:49.701Z,24.90
2018-12-17T08:25:52.217Z,23.90
2018-12-17T08:26:54.644Z,16.85
2018-12-17T08:27:57.091Z,16.90
2018-12-17T08:28:59.540Z,24.52
2018-12-17T08:30:04.128Z,21.00
2018-12-17T08:31:06.643Z,22.25
2018-12-17T08:32:09.075Z,25.08
2018-12-17T08:33:11.515Z,18.80
2018-12-17T08:34:13.971Z,18.32
2018-12-17T08:35:16.436Z,15.25
2018-12-17T08:36:18.871Z,19.60
2018-12-17T08:37:21.341Z,16.32
2018-12-17T08:38:23.791Z,18.73
2018-12-17T08:39:26.271Z,17.90
2018-12-17T08:40:28.714Z,20.50
2018-12-17T08:41:31.152Z,28.87
2018-12-17T08:42:33.582Z,20.48
2018-12-17T08:43:36.011Z,22.42
2018-12-17T08:44:38.539Z,14.47
2018-12-17T08:45:41.094Z,21.10
2018-12-17T08:46:43.551Z,21.82
2018-12-17T08:47:46.003Z,20.23
2018-12-17T08:48:48.441Z,17.92
2018-12-17T08:49:50.896Z,17.85
2018-12-17T08:50:53.353Z,14.63
2018-12-17T08:51:55.795Z,19.55
2018-12-17T08:52:58.256Z,12.55
2018-12-17T08:54:00.686Z,14.65
2018-12-17T08:55:03.430Z,14.63
2018-12-17T08:56:05.991Z,11.28
2018-12-17T08:57:08.477Z,15.00
2018-12-17T08:58:11.012Z,13.03
2018-12-17T08:59:13.448Z,11.40
2018-12-17T09:00:15.957Z,14.98
2018-12-17T09:01:18.404Z,15.18
2018-12-17T09:02:20.844Z,12.85
2018-12-17T09:03:23.420Z,16.35
2018-12-17T09:04:25.877Z,14.47
2018-12-17T09:05:28.330Z,16.52
2018-12-17T09:06:30.828Z,14.38
2018-12-17T09:07:33.273Z,15.32
2018-12-17T09:08:35.710Z,14.58
2018-12-17T09:09:38.148Z,16.80
2018-12-17T09:10:40.603Z,11.73
2018-12-17T09:11:43.043Z,14.40
2018-12-17T09:12:45.499Z,13.65
2018-12-17T09:13:47.948Z,12.65
2018-12-17T09:14:50.423Z,10.38
2018-12-17T09:15:52.884Z,8.83
2018-12-17T09:16:55.413Z,14.13
2018-12-17T09:17:57.865Z,12.30
2018-12-17T09:19:00.299Z,8.85
2018-12-17T09:20:03.043Z,12.30
2018-12-17T09:21:05.508Z,11.88
2018-12-17T09:22:07.985Z,13.58
2018-12-17T09:23:10.415Z,10.05
2018-12-17T09:24:12.845Z,7.37
2018-12-17T09:25:15.294Z,15.03
2018-12-17T09:26:17.752Z,11.75
2018-12-17T09:27:20.213Z,15.55
2018-12-17T09:28:22.663Z,17.35
2018-12-17T09:29:25.105Z,20.45
2018-12-17T09:30:27.535Z,11.65
2018-12-17T09:31:29.996Z,16.48
2018-12-17T09:32:32.439Z,9.80
2018-12-17T09:33:34.875Z,9.40
2018-12-17T09:34:37.431Z,9.33
2018-12-17T09:35:39.900Z,15.18
2018-12-17T09:36:42.343Z,10.08
2018-12-17T09:37:44.791Z,8.23
2018-12-17T09:38:47.303Z,7.87
2018-12-17T09:39:49.750Z,11.80
2018-12-17T09:40:52.294Z,10.05
2018-12-17T09:41:54.754Z,14.78
2018-12-17T09:42:57.387Z,12.03
2018-12-17T09:43:59.829Z,9.53
2018-12-17T09:45:02.274Z,10.08
2018-12-17T09:46:04.730Z,8.63
2018-12-17T09:47:07.188Z,11.38
2018-12-17T09:48:09.672Z,10.30
2018-12-17T09:49:12.117Z,16.12
2018-12-17T09:50:14.569Z,15.80
2018-12-17T09:51:19.663Z,17.98
2018-12-17T09:52:21.488Z,16.40
2018-12-17T09:53:23.950Z,16.07
2018-12-17T09:54:26.385Z,10.30
2018-12-17T09:55:28.822Z,13.05
2018-12-17T09:56:31.273Z,14.35
2018-12-17T09:57:33.726Z,10.03
2018-12-17T09:58:36.164Z,12.78
2018-12-17T09:59:38.609Z,13.18
2018-12-17T10:00:41.047Z,11.08
2018-12-17T10:01:43.511Z,11.78
2018-12-17T10:02:45.975Z,21.10
2018-12-17T10:03:48.433Z,8.93
2018-12-17T10:04:50.870Z,16.27
2018-12-17T10:05:53.375Z,10.78
2018-12-17T10:06:55.915Z,8.60
2018-12-17T10:07:58.358Z,12.65
2018-12-17T10:09:01.214Z,9.85
2018-12-17T10:10:05.345Z,8.83
2018-12-17T10:11:07.779Z,8.10
2018-12-17T10:12:10.239Z,8.73
2018-12-17T10:13:12.689Z,11.05
2018-12-17T10:14:15.122Z,8.28
2018-12-17T10:15:17.573Z,9.05
2018-12-17T10:16:20.003Z,13.62
2018-12-17T10:17:22.447Z,17.30
2018-12-17T10:18:24.911Z,9.30
2018-12-17T10:19:27.339Z,8.40
2018-12-17T10:20:29.840Z,11.75
2018-12-17T10:21:32.268Z,14.63
2018-12-17T10:22:34.703Z,14.55
2018-12-17T10:23:37.687Z,11.88
2018-12-17T10:24:40.216Z,11.10
2018-12-17T10:25:42.700Z,12.73
2018-12-17T10:26:45.140Z,11.80
2018-12-17T10:27:47.612Z,16.17
2018-12-17T10:28:50.104Z,16.60
2018-12-17T10:29:52.571Z,12.37
2018-12-17T10:30:55.046Z,12.25
2018-12-17T10:31:57.474Z,11.18
2018-12-17T10:32:59.911Z,10.53
2018-12-17T10:34:02.363Z,12.23
2018-12-17T10:35:05.275Z,11.60
2018-12-17T10:36:07.777Z,17.73
2018-12-17T10:37:10.261Z,9.30
2018-12-17T10:38:12.708Z,14.98
2018-12-17T10:39:15.182Z,17.32
2018-12-17T10:40:17.671Z,18.95
2018-12-17T10:41:20.130Z,26.77
2018-12-17T10:42:22.589Z,20.95
2018-12-17T10:43:25.031Z,28.20
2018-12-17T10:44:28.100Z,23.57
2018-12-17T10:45:30.703Z,15.43
2018-12-17T10:46:33.215Z,11.38
2018-12-17T10:47:35.724Z,13.83
2018-12-17T10:48:38.178Z,9.93
2018-12-17T10:49:40.649Z,12.30
2018-12-17T10:50:43.131Z,13.43
2018-12-17T10:51:45.563Z,16.77
2018-12-17T10:52:48.057Z,11.75
2018-12-17T10:53:50.505Z,11.45
2018-12-17T10:54:52.989Z,12.28
2018-12-17T10:55:55.506Z,13.68
2018-12-17T10:56:57.979Z,10.93
2018-12-17T10:58:00.426Z,16.52
2018-12-17T10:59:02.862Z,13.18
2018-12-17T11:00:08.107Z,18.40
2018-12-17T11:01:16.324Z,17.62
2018-12-17T11:02:21.175Z,14.20
2018-12-17T11:03:25.636Z,12.78
2018-12-17T11:04:30.065Z,13.53
2018-12-17T11:05:32.823Z,14.25
2018-12-17T11:06:35.524Z,12.07
2018-12-17T11:07:38.121Z,13.58
2018-12-17T11:08:40.677Z,12.20
2018-12-17T11:09:43.175Z,11.43
2018-12-17T11:10:45.651Z,16.87
2018-12-17T11:11:48.148Z,15.35
2018-12-17T11:12:50.592Z,11.83
2018-12-17T11:13:53.054Z,13.30
2018-12-17T11:14:55.487Z,14.10
2018-12-17T11:15:57.962Z,12.30
2018-12-17T11:17:00.455Z,10.38
2018-12-17T11:18:02.926Z,10.68
2018-12-17T11:19:05.379Z,18.92
2018-12-17T11:20:07.967Z,12.58
2018-12-17T11:21:10.462Z,16.95
2018-12-17T11:22:12.916Z,14.28
2018-12-17T11:23:15.359Z,11.08
2018-12-17T11:24:17.886Z,12.60
2018-12-17T11:25:20.375Z,17.75
2018-12-17T11:26:22.859Z,15.93
2018-12-17T11:27:25.342Z,12.63
2018-12-17T11:28:27.905Z,14.13
2018-12-17T11:29:30.382Z,11.38
2018-12-17T11:30:32.815Z,13.50
2018-12-17T11:31:35.323Z,11.63
2018-12-17T11:32:39.771Z,13.13
2018-12-17T11:33:42.220Z,12.13
2018-12-17T11:34:44.803Z,11.70
2018-12-17T11:35:47.308Z,11.78
2018-12-17T11:36:49.757Z,13.22
2018-12-17T11:37:52.195Z,16.40
2018-12-17T11:38:54.691Z,19.32
2018-12-17T11:39:57.155Z,14.30
2018-12-17T11:40:59.590Z,13.98
2018-12-17T11:42:02.101Z,12.40
2018-12-17T11:43:05.253Z,12.47
2018-12-17T11:44:07.794Z,14.10
2018-12-17T11:45:10.302Z,13.00
2018-12-17T11:46:12.758Z,15.20
2018-12-17T11:47:15.460Z,16.32
2018-12-17T11:48:19.726Z,16.93
2018-12-17T11:49:22.929Z,18.37
2018-12-17T11:50:25.391Z,19.25
2018-12-17T11:51:28.236Z,14.00
2018-12-17T11:52:30.750Z,13.20
2018-12-17T11:53:33.494Z,18.42
2018-12-17T11:54:36.738Z,12.75
2018-12-17T11:55:39.183Z,17.15
2018-12-17T11:56:46.671Z,13.93
2018-12-17T11:58:02.039Z,18.25
2018-12-17T11:59:04.651Z,15.20
2018-12-17T12:00:08.729Z,17.82
2018-12-17T12:01:14.198Z,13.05
2018-12-17T12:02:17.665Z,21.25
2018-12-17T12:03:21.787Z,15.13
2018-12-17T12:04:25.992Z,14.80
2018-12-17T12:05:29.125Z,15.60
2018-12-17T12:06:32.454Z,12.23
2018-12-17T12:07:35.026Z,13.50
2018-12-17T12:08:38.450Z,13.75
2018-12-17T12:09:41.638Z,18.02
2018-12-17T12:10:44.222Z,19.50
2018-12-17T12:11:46.733Z,21.40
2018-12-17T12:12:49.608Z,18.35
2018-12-17T12:13:52.379Z,16.73
2018-12-17T12:14:55.569Z,16.35
2018-12-17T12:15:59.701Z,14.98
2018-12-17T12:17:02.248Z,13.55
2018-12-17T12:18:05.970Z,16.45
2018-12-17T12:19:09.133Z,15.53
2018-12-17T12:20:11.983Z,18.82
2018-12-17T12:21:15.646Z,13.62
2018-12-17T12:22:18.215Z,16.10
2018-12-17T12:23:21.999Z,11.83
2018-12-17T12:24:24.901Z,10.98
2018-12-17T12:25:27.590Z,9.83
2018-12-17T12:26:33.150Z,15.25
2018-12-17T12:27:38.986Z,11.38
2018-12-17T12:28:44.221Z,9.48
2018-12-17T12:29:46.718Z,10.25
2018-12-17T12:30:51.714Z,9.55
2018-12-17T12:31:54.191Z,12.43
2018-12-17T12:32:57.013Z,15.18
2018-12-17T12:33:59.456Z,13.28
2018-12-17T12:35:02.090Z,12.60
2018-12-17T12:36:05.125Z,11.12
2018-12-17T12:37:08.571Z,11.12
2018-12-17T12:38:11.610Z,13.98
2018-12-17T12:39:14.275Z,11.40
2018-12-17T12:40:16.862Z,23.85
2018-12-17T12:41:19.503Z,12.58
2018-12-17T12:42:22.018Z,10.43
2018-12-17T12:43:24.596Z,9.50
2018-12-17T12:44:27.246Z,9.75
2018-12-17T12:45:29.908Z,9.30
2018-12-17T12:46:32.933Z,11.57
2018-12-17T12:47:35.424Z,8.95
2018-12-17T12:48:38.028Z,25.88
2018-12-17T12:49:40.580Z,10.85
2018-12-17T12:50:43.045Z,8.40
2018-12-17T12:51:45.636Z,14.15
2018-12-17T12:52:48.133Z,9.80
2018-12-17T12:53:50.640Z,8.90
2018-12-17T12:54:53.116Z,8.65
2018-12-17T12:55:55.688Z,9.03
2018-12-17T12:56:58.937Z,7.10
2018-12-17T12:58:03.774Z,8.48
2018-12-17T12:59:05.863Z,9.78
2018-12-17T13:00:09.658Z,10.63
2018-12-17T13:01:12.927Z,14.10
2018-12-17T13:02:15.500Z,8.78
2018-12-17T13:03:18.086Z,10.50
2018-12-17T13:04:20.844Z,13.60
2018-12-17T13:05:23.294Z,11.85
2018-12-17T13:06:25.831Z,13.90
2018-12-17T13:07:28.323Z,11.83
2018-12-17T13:08:31.682Z,6.65
2018-12-17T13:09:37.192Z,9.03
2018-12-17T13:10:39.694Z,9.60
2018-12-17T13:11:42.505Z,8.75
2018-12-17T13:12:45.736Z,10.25
2018-12-17T13:13:49.049Z,12.95
2018-12-17T13:14:51.687Z,9.03
2018-12-17T13:15:54.124Z,12.60
2018-12-17T13:16:56.809Z,16.45
2018-12-17T13:17:59.877Z,8.55
2018-12-17T13:19:02.351Z,8.48
2018-12-17T13:20:05.376Z,14.60
2018-12-17T13:21:07.824Z,15.18
2018-12-17T13:22:12.948Z,9.63
2018-12-17T13:23:15.443Z,7.80
2018-12-17T13:24:17.990Z,10.35
2018-12-17T13:25:22.551Z,13.18
2018-12-17T13:26:25.039Z,10.28
2018-12-17T13:27:29.573Z,10.20
2018-12-17T13:28:32.490Z,13.25